Time;durP1;ratioP1;P1;durP2;ratioP2;P2;SDS_P1;SDS_P2;PMS_P1;PMS_P2;Temp;Humidity;BMP_temperature;BMP_pressure;BME280_temperature;BME280_humidity;BME280_pressure;Samples;Min_cycle;Max_cycle;Signal;HPM_P1;HPM_P2
2022/06/14 03:01:45;;;;;;;1.27;0.90;;;17.50;66.80;;;;;;5650385;23;20488;-76
2022/06/14 03:04:14;;;;;;;0.80;0.80;;;17.50;66.80;;;;;;4996536;28;20524;-76
2022/06/14 03:06:49;;;;;;;1.10;1.00;;;17.40;66.80;;;;;;4995486;28;20460;-76
2022/06/14 03:09:21;;;;;;;0.80;0.80;;;17.40;66.80;;;;;;4996133;28;20977;-74
2022/06/14 03:11:54;;;;;;;0.77;0.77;;;17.40;67.00;;;;;;4996317;28;20519;-74
2022/06/14 03:14:29;;;;;;;0.80;0.70;;;17.40;67.10;;;;;;4996306;28;20483;-74
2022/06/14 03:17:10;;;;;;;1.47;1.00;;;17.30;67.10;;;;;;4997670;28;20593;-74
2022/06/14 03:19:43;;;;;;;0.70;0.70;;;17.30;67.00;;;;;;4996187;28;20487;-74
2022/06/14 03:22:27;;;;;;;0.90;0.90;;;17.30;67.10;;;;;;4995783;28;21087;-74
2022/06/14 03:25:00;;;;;;;0.80;0.80;;;17.30;67.00;;;;;;4996174;28;20557;-74
2022/06/14 03:27:43;;;;;;;0.77;0.77;;;17.30;66.90;;;;;;4996068;28;20429;-74
2022/06/14 03:30:19;;;;;;;0.80;0.80;;;17.30;66.80;;;;;;4996005;28;20433;-74
2022/06/14 03:33:00;;;;;;;0.90;0.80;;;17.30;66.80;;;;;;4995915;28;20480;-74
2022/06/14 03:35:31;;;;;;;1.10;0.80;;;17.30;67.00;;;;;;4995928;28;20441;-74
2022/06/14 03:38:02;;;;;;;1.07;0.97;;;17.30;67.10;;;;;;4995801;28;20465;-74
2022/06/14 03:40:30;;;;;;;0.80;0.80;;;17.30;67.30;;;;;;4995451;28;20836;-74
2022/06/14 03:42:57;;;;;;;0.97;0.87;;;17.30;66.90;;;;;;4995716;28;20453;-74
2022/06/14 03:45:34;;;;;;;1.20;0.83;;;17.30;66.80;;;;;;4995704;28;20449;-76
2022/06/14 03:48:04;;;;;;;0.80;0.80;;;17.30;66.90;;;;;;4995703;28;20433;-76
2022/06/14 03:50:37;;;;;;;1.03;0.80;;;17.30;66.90;;;;;;4995555;28;20449;-74
2022/06/14 03:53:25;;;;;;;0.90;0.90;;;17.40;66.80;;;;;;4995583;28;20445;-74
2022/06/14 03:56:03;;;;;;;1.00;0.90;;;17.40;66.80;;;;;;4988567;28;20453;-74
2022/06/14 03:58:43;;;;;;;0.73;0.70;;;17.40;67.00;;;;;;4995091;28;20976;-73
2022/06/14 04:01:14;;;;;;;0.93;0.93;;;17.40;67.00;;;;;;4995196;28;20492;-74
2022/06/14 04:04:00;;;;;;;0.80;0.80;;;17.40;67.20;;;;;;4995358;28;20520;-74
2022/06/14 04:06:38;;;;;;;0.83;0.80;;;17.40;67.40;;;;;;4995338;28;20437;-73
2022/06/14 04:09:20;;;;;;;1.10;1.00;;;17.50;67.40;;;;;;4995273;28;20461;-74
2022/06/14 04:11:52;;;;;;;0.90;0.80;;;17.50;67.60;;;;;;4995219;28;20477;-74
2022/06/14 04:14:35;;;;;;;0.80;0.80;;;17.50;67.80;;;;;;4995200;28;20438;-74
2022/06/14 04:17:11;;;;;;;0.77;0.77;;;17.40;68.00;;;;;;4994990;28;20441;-74
2022/06/14 04:19:52;;;;;;;0.73;0.60;;;17.40;67.90;;;;;;4995102;28;20440;-74
2022/06/14 04:22:25;;;;;;;0.80;0.70;;;17.40;67.90;;;;;;4994980;28;20539;-74
2022/06/14 04:24:57;;;;;;;0.80;0.80;;;17.50;67.70;;;;;;4995059;28;20442;-74
2022/06/14 04:27:31;;;;;;;0.80;0.80;;;17.50;67.60;;;;;;4994976;28;20432;-74
2022/06/14 04:30:03;;;;;;;2.60;0.90;;;17.50;68.00;;;;;;4994884;28;20433;-74
2022/06/14 04:32:34;;;;;;;0.90;0.70;;;17.50;67.60;;;;;;4994936;28;20465;-74
2022/06/14 04:35:07;;;;;;;1.00;0.90;;;17.60;67.20;;;;;;4994824;28;20487;-74
2022/06/14 04:37:39;;;;;;;1.00;1.00;;;17.70;67.00;;;;;;4994985;28;20519;-74
2022/06/14 04:40:12;;;;;;;0.80;0.80;;;17.80;66.80;;;;;;4994440;28;20968;-74
2022/06/14 04:42:43;;;;;;;1.00;0.90;;;17.90;66.90;;;;;;4994595;28;20527;-74
2022/06/14 04:45:14;;;;;;;0.80;0.80;;;18.00;66.30;;;;;;4994643;28;20484;-74
2022/06/14 04:47:46;;;;;;;0.80;0.80;;;18.00;66.00;;;;;;4994563;28;20437;-74
2022/06/14 04:50:18;;;;;;;1.57;0.90;;;18.10;66.20;;;;;;4994529;28;20434;-74
2022/06/14 04:52:49;;;;;;;0.80;0.80;;;18.20;66.30;;;;;;4994410;28;20485;-74
2022/06/14 04:55:21;;;;;;;0.90;0.70;;;18.30;66.50;;;;;;4994476;28;20492;-74
2022/06/14 04:57:51;;;;;;;0.90;0.90;;;18.40;66.40;;;;;;4994376;28;20516;-74
2022/06/14 05:00:21;;;;;;;0.80;0.80;;;18.50;66.20;;;;;;4994419;28;20492;-74
2022/06/14 05:02:52;;;;;;;0.80;0.80;;;18.50;66.10;;;;;;4994017;28;20461;-74
2022/06/14 05:05:24;;;;;;;0.70;0.60;;;18.50;66.00;;;;;;4994338;28;20433;-73
2022/06/14 05:07:54;;;;;;;1.00;1.00;;;18.60;66.60;;;;;;4994265;28;20429;-73
2022/06/14 05:10:24;;;;;;;0.90;0.90;;;18.50;66.60;;;;;;4994238;28;20444;-73
2022/06/14 05:12:55;;;;;;;0.90;0.90;;;18.40;67.00;;;;;;4994213;28;20433;-74
2022/06/14 05:15:26;;;;;;;0.90;0.90;;;18.30;66.40;;;;;;4994222;28;20456;-74
2022/06/14 05:17:59;;;;;;;1.00;0.90;;;18.00;67.40;;;;;;4994084;28;20465;-74
2022/06/14 05:20:36;;;;;;;1.10;1.00;;;17.80;68.30;;;;;;4994056;28;20429;-74
2022/06/14 05:23:07;;;;;;;0.90;0.90;;;18.00;67.90;;;;;;4994123;28;20487;-74
2022/06/14 05:25:46;;;;;;;0.97;0.90;;;17.80;67.90;;;;;;4994893;28;20519;-74
2022/06/14 05:28:16;;;;;;;1.33;1.10;;;17.80;68.60;;;;;;4993519;28;20434;-74
2022/06/14 05:31:05;;;;;;;0.90;0.90;;;17.60;68.60;;;;;;4993973;28;20523;-74
2022/06/14 05:33:41;;;;;;;0.97;0.97;;;17.70;69.60;;;;;;4993978;28;20433;-74
2022/06/14 05:36:16;;;;;;;0.90;0.90;;;18.00;68.50;;;;;;4993697;28;20975;-73
2022/06/14 05:38:50;;;;;;;0.90;0.70;;;18.00;67.30;;;;;;4993908;28;20515;-73
2022/06/14 05:41:23;;;;;;;1.07;0.97;;;18.30;67.80;;;;;;4994000;28;20527;-73
2022/06/14 05:43:52;;;;;;;1.00;0.90;;;18.70;66.40;;;;;;4993756;28;20818;-73
2022/06/14 05:46:25;;;;;;;1.00;0.90;;;19.00;66.00;;;;;;4993961;28;20456;-74
2022/06/14 05:48:56;;;;;;;0.87;0.80;;;19.20;65.00;;;;;;4993874;28;20430;-73
2022/06/14 05:51:28;;;;;;;1.00;0.90;;;19.20;64.50;;;;;;4993573;28;20886;-74
2022/06/14 05:54:01;;;;;;;0.90;0.90;;;19.40;65.30;;;;;;4993923;28;20434;-74
2022/06/14 05:56:33;;;;;;;1.00;1.00;;;19.50;63.70;;;;;;4993434;28;20851;-73
2022/06/14 05:59:05;;;;;;;0.80;0.80;;;19.50;63.30;;;;;;4993398;28;21066;-74
2022/06/14 06:01:35;;;;;;;1.20;1.10;;;19.70;63.40;;;;;;4993338;28;20492;-74
2022/06/14 06:04:09;;;;;;;0.90;0.90;;;19.40;64.10;;;;;;4993778;28;20425;-73
2022/06/14 06:06:41;;;;;;;1.10;1.00;;;19.40;65.10;;;;;;4993697;28;20500;-74
2022/06/14 06:09:11;;;;;;;0.93;0.93;;;19.30;64.80;;;;;;4993727;28;20433;-74
2022/06/14 06:11:43;;;;;;;0.90;0.90;;;19.40;65.80;;;;;;4993599;28;20519;-74
2022/06/14 06:14:14;;;;;;;0.90;0.90;;;19.90;65.40;;;;;;4993623;28;20445;-75
2022/06/14 06:16:47;;;;;;;1.20;1.10;;;20.20;63.30;;;;;;4993631;28;20433;-74
2022/06/14 06:19:18;;;;;;;1.10;1.10;;;20.50;63.20;;;;;;4993520;28;20500;-74
2022/06/14 06:21:52;;;;;;;0.90;0.80;;;20.60;61.70;;;;;;4993863;28;20508;-74
2022/06/14 06:24:23;;;;;;;1.30;0.90;;;20.30;60.40;;;;;;4993612;28;20798;-74
2022/06/14 06:26:53;;;;;;;0.80;0.80;;;20.30;62.30;;;;;;4993541;28;20492;-74
2022/06/14 06:29:27;;;;;;;1.00;1.00;;;19.80;61.20;;;;;;4993452;28;20847;-74
2022/06/14 06:31:54;;;;;;;0.90;0.90;;;19.50;63.00;;;;;;4993429;28;20587;-74
2022/06/14 06:34:21;;;;;;;1.10;1.00;;;19.60;64.10;;;;;;4993519;28;20456;-74
2022/06/14 06:37:00;;;;;;;0.90;0.90;;;19.80;65.40;;;;;;4993238;28;20449;-74
2022/06/14 06:39:41;;;;;;;0.90;0.90;;;20.10;64.00;;;;;;4993429;28;20465;-73
2022/06/14 06:42:12;;;;;;;0.90;0.90;;;20.20;64.10;;;;;;4996132;28;20467;-73
2022/06/14 06:44:45;;;;;;;0.90;0.90;;;20.60;62.70;;;;;;4996931;28;20433;-73
2022/06/14 06:47:15;;;;;;;1.00;1.00;;;20.80;62.30;;;;;;4996834;28;20434;-74
2022/06/14 06:49:56;;;;;;;1.00;0.90;;;20.90;63.20;;;;;;4996447;28;20441;-74
2022/06/14 06:52:32;;;;;;;1.50;1.03;;;20.70;62.10;;;;;;4996665;28;20522;-73
2022/06/14 06:55:05;;;;;;;1.10;1.00;;;21.10;61.90;;;;;;4996771;28;20433;-74
2022/06/14 06:57:36;;;;;;;0.90;0.90;;;21.20;61.90;;;;;;4996646;28;20503;-74
2022/06/14 07:00:05;;;;;;;2.10;1.30;;;21.20;60.30;;;;;;4996138;28;20871;-73
2022/06/14 07:02:38;;;;;;;0.70;0.70;;;21.30;60.00;;;;;;4995986;28;20492;-73
2022/06/14 07:05:14;;;;;;;0.80;0.73;;;21.40;59.50;;;;;;4996543;28;20437;-73
2022/06/14 07:07:48;;;;;;;0.90;0.90;;;21.40;59.90;;;;;;4996430;28;20488;-73
2022/06/14 07:10:25;;;;;;;1.00;0.87;;;21.60;60.60;;;;;;4996382;28;20435;-74
2022/06/14 07:12:56;;;;;;;1.17;0.83;;;21.40;58.80;;;;;;4996516;28;20441;-73
2022/06/14 07:15:30;;;;;;;0.83;0.83;;;21.40;60.00;;;;;;4996457;28;20441;-74
2022/06/14 07:18:01;;;;;;;1.00;0.90;;;21.50;59.10;;;;;;4996263;28;20437;-73
2022/06/14 07:20:38;;;;;;;1.00;1.00;;;21.50;58.90;;;;;;4996611;28;20525;-73
2022/06/14 07:23:16;;;;;;;0.90;0.90;;;21.40;58.90;;;;;;4996161;28;20495;-73
2022/06/14 07:25:52;;;;;;;1.10;1.00;;;21.60;58.70;;;;;;4996248;28;20512;-74
2022/06/14 07:28:24;;;;;;;1.20;1.00;;;21.50;58.50;;;;;;4996096;28;20437;-74
2022/06/14 07:30:54;;;;;;;0.90;0.80;;;21.30;59.80;;;;;;4995735;28;21038;-74
2022/06/14 07:33:23;;;;;;;0.80;0.73;;;21.60;59.40;;;;;;4995955;28;20453;-75
2022/06/14 07:35:54;;;;;;;0.90;0.90;;;21.30;59.70;;;;;;4995908;28;20476;-75
2022/06/14 07:38:29;;;;;;;0.93;0.83;;;21.50;58.70;;;;;;4995487;28;20980;-75
2022/06/14 07:41:01;;;;;;;1.00;0.90;;;21.70;58.60;;;;;;4995779;28;20464;-74
2022/06/14 07:43:35;;;;;;;0.80;0.80;;;21.50;58.20;;;;;;4995836;28;20433;-74
2022/06/14 07:46:08;;;;;;;0.80;0.80;;;21.60;59.20;;;;;;4995773;28;20434;-75
2022/06/14 07:48:41;;;;;;;1.10;1.00;;;21.50;59.40;;;;;;4995735;28;20436;-75
2022/06/14 07:51:15;;;;;;;1.17;1.07;;;21.90;59.60;;;;;;4995969;28;20527;-75
2022/06/14 07:53:48;;;;;;;1.30;0.80;;;22.20;57.40;;;;;;4995631;28;20437;-74
2022/06/14 07:56:18;;;;;;;0.97;0.80;;;22.40;55.70;;;;;;4995615;28;20492;-75
2022/06/14 07:58:48;;;;;;;1.27;0.80;;;22.50;54.80;;;;;;4995046;28;20909;-75
2022/06/14 08:01:19;;;;;;;0.70;0.70;;;22.30;54.70;;;;;;4994986;28;20984;-75
2022/06/14 08:03:50;;;;;;;0.70;0.70;;;22.10;56.10;;;;;;4995431;28;20484;-74
2022/06/14 08:06:21;;;;;;;0.70;0.70;;;22.10;55.90;;;;;;4995469;28;20438;-76
2022/06/14 08:08:54;;;;;;;0.83;0.83;;;22.30;55.50;;;;;;4995372;28;20487;-75
2022/06/14 08:11:27;;;;;;;0.70;0.70;;;22.50;54.20;;;;;;4995999;28;20500;-75
2022/06/14 08:13:56;;;;;;;0.80;0.70;;;22.80;54.70;;;;;;4995207;28;20500;-75
2022/06/14 08:16:25;;;;;;;0.83;0.80;;;22.50;55.30;;;;;;4995120;28;20452;-75
2022/06/14 08:18:57;;;;;;;0.90;0.80;;;22.60;55.00;;;;;;4994973;28;20488;-74
2022/06/14 08:21:30;;;;;;;0.97;0.80;;;22.10;55.20;;;;;;4995016;28;20473;-74
2022/06/14 08:24:03;;;;;;;0.80;0.70;;;22.10;56.70;;;;;;4995022;28;20813;-75
2022/06/14 08:26:35;;;;;;;0.80;0.80;;;22.00;54.90;;;;;;4994921;28;20524;-75
2022/06/14 08:29:10;;;;;;;0.80;0.80;;;21.60;56.00;;;;;;4994939;28;20433;-75
2022/06/14 08:31:41;;;;;;;0.80;0.70;;;21.70;55.20;;;;;;4994839;28;20481;-75
2022/06/14 08:34:15;;;;;;;0.87;0.70;;;21.90;53.80;;;;;;4994899;28;20516;-75
2022/06/14 08:36:50;;;;;;;0.73;0.63;;;22.20;55.20;;;;;;4994865;28;20476;-75
2022/06/14 08:39:24;;;;;;;0.77;0.70;;;22.20;56.00;;;;;;4994710;28;20538;-75
2022/06/14 08:42:13;;;;;;;0.80;0.80;;;22.30;53.70;;;;;;4994739;28;20889;-77
2022/06/14 08:44:47;;;;;;;0.93;0.83;;;22.50;55.90;;;;;;4995279;28;20434;-76
2022/06/14 08:47:43;;;;;;;0.80;0.80;;;22.40;54.50;;;;;;4994672;28;20437;-76
2022/06/14 08:50:34;;;;;;;1.30;0.70;;;22.20;55.90;;;;;;4994621;28;20484;-76
2022/06/14 08:53:45;;;;;;;1.00;0.80;;;22.50;55.70;;;;;;4994245;28;20919;-76
2022/06/14 08:56:26;;;;;;;0.70;0.70;;;22.80;56.00;;;;;;4994562;28;20441;-76
2022/06/14 08:59:38;;;;;;;1.27;0.80;;;22.60;55.50;;;;;;4994399;28;20891;-76
2022/06/14 09:02:50;;;;;;;1.00;0.90;;;22.30;56.40;;;;;;4994053;28;20492;-75
2022/06/14 09:06:07;;;;;;;0.80;0.73;;;22.60;56.90;;;;;;4952927;29;20447;-76
2022/06/14 09:08:59;;;;;;;0.83;0.70;;;23.10;55.50;;;;;;4915258;29;20948;-75
2022/06/14 09:11:56;;;;;;;1.20;0.80;;;22.80;54.70;;;;;;4915238;29;20489;-77
2022/06/14 09:14:58;;;;;;;0.70;0.70;;;22.90;55.70;;;;;;4979514;28;20453;-77
2022/06/14 09:17:41;;;;;;;0.80;0.73;;;23.10;54.70;;;;;;4978267;28;20456;-76
2022/06/14 09:20:16;;;;;;;0.70;0.70;;;23.50;53.70;;;;;;4994330;28;20483;-76
2022/06/14 09:22:56;;;;;;;0.70;0.63;;;23.00;53.10;;;;;;4994072;28;20519;-75
2022/06/14 09:25:39;;;;;;;0.90;0.80;;;23.20;54.50;;;;;;4993791;28;20854;-76
2022/06/14 09:28:26;;;;;;;0.70;0.60;;;23.50;52.50;;;;;;4993769;28;20852;-75
2022/06/14 09:31:26;;;;;;;0.70;0.70;;;23.20;52.50;;;;;;4994029;28;20460;-75
2022/06/14 09:34:38;;;;;;;0.90;0.80;;;23.20;52.30;;;;;;4990543;28;20864;-75
2022/06/14 09:37:46;;;;;;;0.70;0.60;;;23.50;52.00;;;;;;4993689;28;20832;-76
2022/06/14 09:40:44;;;;;;;0.70;0.60;;;23.60;52.70;;;;;;4994722;28;20469;-75
2022/06/14 09:43:33;;;;;;;0.90;0.70;;;23.20;49.40;;;;;;4994110;28;20433;-75
2022/06/14 09:46:23;;;;;;;0.70;0.63;;;23.20;50.30;;;;;;4993636;28;20905;-76
2022/06/14 09:49:33;;;;;;;0.70;0.60;;;23.50;50.90;;;;;;4993976;28;20443;-76
2022/06/14 09:52:37;;;;;;;1.13;0.80;;;23.70;50.40;;;;;;4953131;29;20466;-74
2022/06/14 09:55:33;;;;;;;0.70;0.60;;;24.10;50.20;;;;;;4952743;29;20997;-75
2022/06/14 09:58:23;;;;;;;0.70;0.60;;;23.40;48.60;;;;;;4989352;28;20511;-75
2022/06/14 10:01:01;;;;;;;0.70;0.60;;;23.90;50.50;;;;;;4993469;28;20489;-75
2022/06/14 10:03:55;;;;;;;0.90;0.80;;;23.80;48.90;;;;;;4993721;28;20571;-75
2022/06/14 10:06:48;;;;;;;0.70;0.70;;;23.80;52.30;;;;;;4990283;28;20465;-75
2022/06/14 10:09:38;;;;;;;0.80;0.60;;;23.80;47.90;;;;;;4993672;28;20448;-75
2022/06/14 10:12:23;;;;;;;0.70;0.60;;;23.80;47.20;;;;;;4993649;28;20469;-75
2022/06/14 10:14:56;;;;;;;0.80;0.80;;;23.60;46.50;;;;;;4994608;28;20491;-75
2022/06/14 10:17:49;;;;;;;0.80;0.73;;;23.80;48.50;;;;;;4997430;28;20840;-75
2022/06/14 10:20:35;;;;;;;0.80;0.80;;;24.30;47.40;;;;;;4997316;28;20468;-75
2022/06/14 10:23:15;;;;;;;0.70;0.60;;;24.70;50.60;;;;;;4997017;28;20793;-75
2022/06/14 10:28:42;;;;;;;1.10;0.80;;;25.00;47.50;;;;;;4997021;28;20441;-75
2022/06/14 10:31:19;;;;;;;0.70;0.70;;;25.00;47.20;;;;;;4997122;28;20523;-73
2022/06/14 10:33:53;;;;;;;1.20;1.10;;;25.20;46.90;;;;;;4997150;28;20440;-74
2022/06/14 10:36:46;;;;;;;0.70;0.70;;;25.40;47.50;;;;;;4996736;28;20919;-73
2022/06/14 10:39:33;;;;;;;1.27;1.07;;;25.10;46.30;;;;;;4996941;28;20464;-74
2022/06/14 10:42:07;;;;;;;0.70;0.70;;;25.00;48.40;;;;;;4996626;28;20989;-74
2022/06/14 10:44:41;;;;;;;0.80;0.60;;;25.30;47.70;;;;;;4996916;28;20449;-73
2022/06/14 10:47:16;;;;;;;0.70;0.70;;;25.10;45.70;;;;;;4996824;28;20444;-74
2022/06/14 10:50:03;;;;;;;0.80;0.70;;;25.10;46.90;;;;;;4996821;28;20500;-74
2022/06/14 10:52:44;;;;;;;0.70;0.60;;;25.30;46.50;;;;;;4996704;28;20527;-74
2022/06/14 10:55:40;;;;;;;0.80;0.80;;;25.20;46.10;;;;;;4996688;28;20437;-75
2022/06/14 10:58:29;;;;;;;0.70;0.60;;;25.20;45.70;;;;;;4996665;28;20434;-76
2022/06/14 11:01:04;;;;;;;0.70;0.70;;;25.40;46.80;;;;;;4996451;28;20535;-76
2022/06/14 11:03:44;;;;;;;1.23;0.70;;;25.70;48.30;;;;;;4996323;28;20904;-75
2022/06/14 11:06:37;;;;;;;0.70;0.70;;;25.80;46.20;;;;;;4996573;28;20503;-75
2022/06/14 11:09:20;;;;;;;0.70;0.60;;;25.70;45.90;;;;;;4987835;28;20485;-76
2022/06/14 11:12:02;;;;;;;1.10;0.80;;;25.70;46.40;;;;;;4996290;28;20477;-76
2022/06/14 11:14:37;;;;;;;0.80;0.80;;;25.80;43.90;;;;;;4996308;28;20433;-76
2022/06/14 11:17:23;;;;;;;0.70;0.60;;;25.80;44.10;;;;;;4996535;28;20441;-76
2022/06/14 11:20:06;;;;;;;0.70;0.60;;;26.00;46.50;;;;;;4995976;28;20524;-75
2022/06/14 11:22:40;;;;;;;0.97;0.70;;;25.30;43.90;;;;;;4996379;28;20885;-75
2022/06/14 11:25:22;;;;;;;0.80;0.70;;;25.20;44.80;;;;;;4996142;28;20514;-76
2022/06/14 11:27:59;;;;;;;0.80;0.60;;;25.30;44.00;;;;;;4995529;28;20437;-75
2022/06/14 11:30:36;;;;;;;0.70;0.70;;;25.60;45.30;;;;;;4996036;28;20429;-76
2022/06/14 11:33:12;;;;;;;0.70;0.67;;;25.80;44.30;;;;;;4996005;28;20504;-76
2022/06/14 11:36:00;;;;;;;0.90;0.70;;;26.10;44.10;;;;;;4995977;28;20524;-76
2022/06/14 11:38:50;;;;;;;0.70;0.60;;;25.80;42.20;;;;;;4995873;28;20456;-75
2022/06/14 11:41:20;;;;;;;0.80;0.60;;;25.80;44.50;;;;;;4995678;28;20493;-76
2022/06/14 11:44:05;;;;;;;0.70;0.60;;;26.00;43.90;;;;;;4995728;28;20500;-76
2022/06/14 11:46:40;;;;;;;0.70;0.60;;;26.00;43.00;;;;;;4995663;28;20430;-74
2022/06/14 11:49:13;;;;;;;1.03;0.60;;;26.30;43.50;;;;;;4995670;28;20464;-76
2022/06/14 11:51:50;;;;;;;1.07;0.70;;;26.40;43.80;;;;;;4995722;28;20465;-76
2022/06/14 11:54:24;;;;;;;0.70;0.60;;;26.60;41.60;;;;;;4995590;28;20495;-75
2022/06/14 11:57:10;;;;;;;0.70;0.53;;;25.80;41.10;;;;;;4995615;28;20923;-76
2022/06/14 12:00:06;;;;;;;0.70;0.70;;;25.50;41.60;;;;;;4995342;28;20555;-74
2022/06/14 12:02:52;;;;;;;0.70;0.57;;;25.50;41.30;;;;;;4994886;28;21074;-76
2022/06/14 12:05:31;;;;;;;0.90;0.60;;;26.00;39.60;;;;;;4995076;28;20905;-75
2022/06/14 12:08:05;;;;;;;0.67;0.67;;;26.20;43.40;;;;;;4995327;28;20440;-76
2022/06/14 12:10:53;;;;;;;0.80;0.60;;;26.40;39.50;;;;;;4995208;28;20429;-76
2022/06/14 12:13:34;;;;;;;1.00;0.70;;;26.60;40.40;;;;;;4995187;28;20495;-76
2022/06/14 12:16:10;;;;;;;0.70;0.60;;;27.10;41.30;;;;;;4995132;28;20441;-76
2022/06/14 12:18:42;;;;;;;0.70;0.70;;;27.10;38.80;;;;;;4995147;28;20479;-75
2022/06/14 12:21:18;;;;;;;0.70;0.60;;;27.10;37.30;;;;;;4994978;28;20495;-76
2022/06/14 12:23:49;;;;;;;0.70;0.60;;;27.20;38.40;;;;;;4994900;28;20449;-76
2022/06/14 12:26:35;;;;;;;0.70;0.60;;;26.70;36.70;;;;;;4994662;28;20802;-76
2022/06/14 12:29:07;;;;;;;0.70;0.60;;;26.80;38.20;;;;;;4994956;28;20456;-75
2022/06/14 12:31:47;;;;;;;0.83;0.63;;;26.50;39.80;;;;;;4995032;28;20465;-74
2022/06/14 12:34:20;;;;;;;0.70;0.70;;;26.60;39.60;;;;;;4994896;28;20433;-75
2022/06/14 12:36:53;;;;;;;0.70;0.60;;;26.30;36.90;;;;;;4994749;28;20934;-76
2022/06/14 12:39:28;;;;;;;0.70;0.60;;;26.40;40.40;;;;;;4994805;28;20434;-76
2022/06/14 12:42:03;;;;;;;0.70;0.60;;;26.40;38.60;;;;;;4994711;28;20803;-73
2022/06/14 12:44:42;;;;;;;0.70;0.60;;;26.20;38.80;;;;;;4994887;28;20432;-74
2022/06/14 12:47:16;;;;;;;0.70;0.60;;;26.20;39.10;;;;;;4994713;28;20421;-75
2022/06/14 12:49:48;;;;;;;0.70;0.60;;;26.50;39.60;;;;;;4995008;28;20434;-73
2022/06/14 12:52:20;;;;;;;1.00;0.70;;;26.40;35.70;;;;;;4995075;28;20529;-74
2022/06/14 12:54:52;;;;;;;0.70;0.60;;;26.60;38.50;;;;;;4995130;28;20429;-73
2022/06/14 12:57:29;;;;;;;0.87;0.70;;;26.60;36.70;;;;;;4994570;28;20520;-73
2022/06/14 13:00:03;;;;;;;0.67;0.53;;;26.70;35.30;;;;;;4994394;28;20472;-73
2022/06/14 13:02:37;;;;;;;0.70;0.53;;;26.60;35.90;;;;;;4994379;28;20552;-73
2022/06/14 13:05:17;;;;;;;0.70;0.63;;;26.90;39.50;;;;;;4994324;28;20428;-73
2022/06/14 13:07:52;;;;;;;0.70;0.60;;;27.10;40.10;;;;;;4994287;28;20433;-73
2022/06/14 13:10:42;;;;;;;0.70;0.60;;;27.10;37.70;;;;;;4994289;28;20432;-74
2022/06/14 13:13:41;;;;;;;0.70;0.60;;;27.00;36.40;;;;;;4994301;28;20429;-74
2022/06/14 13:16:20;;;;;;;0.70;0.60;;;27.00;34.00;;;;;;4994289;28;20464;-75
2022/06/14 13:18:59;;;;;;;0.70;0.60;;;26.90;37.00;;;;;;4994181;28;20445;-74
2022/06/14 13:21:53;;;;;;;0.77;0.77;;;26.80;38.90;;;;;;4993634;28;21049;-75
2022/06/14 13:24:29;;;;;;;0.80;0.70;;;27.00;38.80;;;;;;4994025;28;20524;-75
2022/06/14 13:27:06;;;;;;;0.77;0.60;;;26.90;39.50;;;;;;4994035;28;20429;-76
2022/06/14 13:29:44;;;;;;;0.80;0.67;;;26.80;39.10;;;;;;4993913;28;20491;-76
2022/06/14 13:32:32;;;;;;;0.70;0.70;;;26.70;38.10;;;;;;4993984;28;20468;-76
2022/06/14 13:35:15;;;;;;;1.27;0.80;;;27.00;40.10;;;;;;4992122;28;20489;-76
2022/06/14 13:37:47;;;;;;;0.77;0.70;;;27.50;39.70;;;;;;4994475;28;20429;-76
2022/06/14 13:40:17;;;;;;;0.80;0.60;;;27.70;37.00;;;;;;4993853;28;20469;-73
2022/06/14 13:42:50;;;;;;;1.20;0.60;;;27.90;37.00;;;;;;4993491;28;21042;-73
2022/06/14 13:45:31;;;;;;;0.80;0.60;;;27.70;37.80;;;;;;4993847;28;20496;-73
2022/06/14 13:48:02;;;;;;;0.80;0.70;;;27.80;39.20;;;;;;4993846;28;20438;-73
2022/06/14 13:50:36;;;;;;;0.70;0.60;;;27.30;39.30;;;;;;4995597;28;20991;-74
2022/06/14 13:53:09;;;;;;;0.70;0.60;;;27.80;39.40;;;;;;4997844;28;20476;-73
2022/06/14 13:55:42;;;;;;;0.70;0.70;;;27.80;39.60;;;;;;4997707;28;20429;-74
2022/06/14 13:58:14;;;;;;;0.83;0.83;;;27.70;39.60;;;;;;4997704;28;20841;-74
2022/06/14 14:00:54;;;;;;;0.70;0.70;;;28.00;40.20;;;;;;4997047;28;20892;-75
2022/06/14 14:03:31;;;;;;;0.80;0.70;;;28.10;39.50;;;;;;4997344;28;20429;-76
2022/06/14 14:06:04;;;;;;;0.90;0.67;;;28.30;40.10;;;;;;4997575;28;20428;-76
2022/06/14 14:08:39;;;;;;;0.70;0.70;;;28.30;40.90;;;;;;4997574;28;20444;-77
2022/06/14 14:11:14;;;;;;;0.80;0.70;;;28.10;38.80;;;;;;4997552;28;20465;-77
2022/06/14 14:13:46;;;;;;;0.80;0.70;;;28.40;39.80;;;;;;4997562;28;20454;-78
2022/06/14 14:16:19;;;;;;;0.80;0.80;;;28.70;40.30;;;;;;4997571;28;20437;-77
2022/06/14 14:19:02;;;;;;;0.90;0.70;;;28.70;40.50;;;;;;4997507;28;20964;-77
2022/06/14 14:21:35;;;;;;;0.80;0.70;;;28.90;40.10;;;;;;4997445;28;20491;-77
2022/06/14 14:24:31;;;;;;;1.00;0.60;;;28.80;38.00;;;;;;4997382;28;20417;-78
2022/06/14 14:27:04;;;;;;;1.00;0.90;;;28.40;40.10;;;;;;4997273;28;20469;-77
2022/06/14 14:29:38;;;;;;;0.73;0.70;;;28.20;40.70;;;;;;4997145;28;20437;-76
2022/06/14 14:32:12;;;;;;;1.00;0.70;;;28.00;40.80;;;;;;4996838;28;20461;-77
2022/06/14 14:34:44;;;;;;;0.70;0.60;;;28.10;40.90;;;;;;4997075;28;20502;-77
2022/06/14 14:37:18;;;;;;;0.80;0.70;;;28.40;41.10;;;;;;4997158;28;20492;-77
2022/06/14 14:40:17;;;;;;;0.70;0.70;;;28.70;39.90;;;;;;4997037;28;20434;-77
2022/06/14 14:42:55;;;;;;;0.80;0.70;;;29.00;40.20;;;;;;4996927;28;20560;-76
2022/06/14 14:45:27;;;;;;;0.70;0.70;;;29.00;40.80;;;;;;4997007;28;20483;-75
2022/06/14 14:48:00;;;;;;;0.70;0.70;;;28.20;39.70;;;;;;4996593;28;20835;-77
2022/06/14 14:50:37;;;;;;;0.90;0.70;;;28.40;41.30;;;;;;4996540;28;20886;-77
2022/06/14 14:53:14;;;;;;;0.80;0.80;;;28.70;40.90;;;;;;4996823;28;20840;-76
2022/06/14 14:55:45;;;;;;;1.10;0.60;;;28.70;39.20;;;;;;4996722;28;20524;-76
2022/06/14 14:58:18;;;;;;;0.80;0.77;;;29.10;41.40;;;;;;4996603;28;20439;-77
2022/06/14 15:06:41;;;;;;;0.77;0.63;;;28.40;41.80;;;;;;4996516;28;20409;-74
2022/06/14 15:09:14;;;;;;;0.70;0.67;;;28.30;41.00;;;;;;4996433;28;20495;-75
2022/06/14 15:11:52;;;;;;;0.70;0.60;;;28.50;40.10;;;;;;4996343;28;20540;-75
2022/06/14 15:14:23;;;;;;;1.00;0.70;;;28.50;40.20;;;;;;4996004;28;20963;-74
2022/06/14 15:19:53;;;;;;;0.67;0.53;;;28.60;40.00;;;;;;5020936;23;20550;-73
2022/06/14 15:19:54;;;;;;;0.70;0.60;;;28.60;40.30;;;;;;4995882;28;20441;-72
2022/06/14 15:22:24;;;;;;;0.70;0.60;;;28.60;40.30;;;;;;4995764;28;20847;-73
2022/06/14 15:24:54;;;;;;;0.70;0.60;;;28.60;40.00;;;;;;4996887;28;20456;-73
2022/06/14 15:27:38;;;;;;;0.80;0.60;;;28.50;40.30;;;;;;4996008;28;20527;-73
2022/06/14 15:30:06;;;;;;;0.80;0.70;;;28.20;40.40;;;;;;4995972;28;20463;-73
2022/06/14 15:32:35;;;;;;;0.80;0.80;;;28.30;40.50;;;;;;4995892;28;20472;-72
2022/06/14 15:35:19;;;;;;;0.70;0.60;;;28.30;40.70;;;;;;4995599;28;20856;-73
2022/06/14 15:38:18;;;;;;;0.90;0.80;;;28.40;41.50;;;;;;4996024;28;20496;-73
2022/06/14 15:40:45;;;;;;;0.70;0.70;;;28.20;40.50;;;;;;4995794;28;20524;-72
2022/06/14 15:43:22;;;;;;;0.70;0.60;;;28.00;41.00;;;;;;4996789;28;20499;-73
2022/06/14 15:45:51;;;;;;;0.63;0.53;;;27.90;40.30;;;;;;4996043;28;20519;-73
2022/06/14 15:48:22;;;;;;;0.80;0.70;;;28.00;41.10;;;;;;4996170;28;20849;-72
2022/06/14 15:50:57;;;;;;;0.70;0.60;;;27.70;39.50;;;;;;4995435;28;20964;-73
2022/06/14 15:53:37;;;;;;;0.80;0.70;;;28.00;39.70;;;;;;4995583;28;20491;-73
2022/06/14 15:56:16;;;;;;;0.70;0.67;;;28.30;40.60;;;;;;4995559;28;20527;-74
2022/06/14 15:58:47;;;;;;;0.70;0.60;;;28.30;41.50;;;;;;4996087;28;20824;-73
2022/06/14 16:01:19;;;;;;;0.80;0.60;;;27.70;42.10;;;;;;4995077;28;20976;-73
2022/06/14 16:03:57;;;;;;;0.90;0.80;;;27.50;43.10;;;;;;4995330;28;20437;-73
2022/06/14 16:06:30;;;;;;;0.93;0.80;;;27.70;43.80;;;;;;4995394;28;20535;-75
2022/06/14 16:09:01;;;;;;;0.80;0.60;;;27.50;42.60;;;;;;4995393;28;20434;-73
2022/06/14 16:11:29;;;;;;;0.70;0.60;;;27.40;41.30;;;;;;4994899;28;20429;-73
2022/06/14 16:14:01;;;;;;;0.90;0.77;;;27.70;42.40;;;;;;4994512;28;20503;-73
2022/06/14 16:16:32;;;;;;;0.70;0.60;;;28.00;42.80;;;;;;4994858;28;20531;-74
2022/06/14 16:19:00;;;;;;;0.70;0.60;;;28.00;42.00;;;;;;4995184;28;20429;-72
2022/06/14 16:21:32;;;;;;;0.70;0.70;;;27.90;42.90;;;;;;4994980;28;20484;-73
2022/06/14 16:24:00;;;;;;;0.70;0.60;;;27.70;43.50;;;;;;4995051;28;20425;-73
2022/06/14 16:26:37;;;;;;;0.70;0.60;;;27.80;43.00;;;;;;4994857;28;20913;-73
2022/06/14 16:29:14;;;;;;;0.80;0.70;;;27.90;43.60;;;;;;4994839;28;20433;-75
2022/06/14 16:31:48;;;;;;;1.00;0.60;;;27.90;43.10;;;;;;4994819;28;20421;-73
2022/06/14 16:34:24;;;;;;;0.80;0.60;;;27.60;43.60;;;;;;4994929;28;20491;-74
2022/06/14 16:37:00;;;;;;;0.70;0.60;;;27.60;43.50;;;;;;4994687;28;20472;-73
2022/06/14 16:39:36;;;;;;;0.70;0.60;;;27.70;44.20;;;;;;4994423;28;20975;-72
2022/06/14 16:42:18;;;;;;;0.70;0.63;;;27.90;43.70;;;;;;4994548;28;20468;-73
2022/06/14 16:44:53;;;;;;;0.70;0.60;;;27.80;43.20;;;;;;4994530;28;20528;-74
2022/06/14 16:47:26;;;;;;;0.70;0.60;;;27.80;44.00;;;;;;4994892;28;20477;-74
2022/06/14 16:49:58;;;;;;;0.70;0.60;;;27.90;43.90;;;;;;4994571;28;20433;-73